Sheridan, WY (82801)

3:20 PM MST on December 03, 2016 (GMT -0700)
South Sheridan | | Change Station

Elev 3770 ft 44.79 °N, 106.95 °W | Updated 9 seconds ago

Overcast
Overcast
43.7 °F
Feels Like 44 °F
N
2.5
Wind Variable Wind from West
Gusts 2.5 mph

Today
High -- | Low -- °F
--% Chance of Precip.
Yesterday
High -- | Low -- °F
Precip. -- in
Pressure 29.99 in
Visibility 10.0 miles
Clouds Mostly Cloudy 7500 ft
Overcast 9000 ft
Windchill 44 °F
Dew Point 14 °F
Humidity 30%
Rainfall 0.00 in
Snow Depth Not available.
7:28 AM 4:27 PM
Waxing Crescent, 17% visible
METAR KSHR 032153Z AUTO 29012G17KT 10SM BKN075 OVC090 06/M08 A2990 RMK AO2 PK WND 32036/2108 SLP154 T00561083
Pressure 29.99 in
Visibility 10.0 miles
Clouds Mostly Cloudy 7500 ft
Overcast 9000 ft
Windchill 44 °F
Dew Point 14 °F
Humidity 30%
Rainfall 0.00 in
Snow Depth Not available.
7:28 AM 4:27 PM
Waxing Crescent, 17% visible
METAR KSHR 032153Z AUTO 29012G17KT 10SM BKN075 OVC090 06/M08 A2990 RMK AO2 PK WND 32036/2108 SLP154 T00561083

10-Day Weather Forecast

Almanac

Astronomy

Dec. 03, 2016 Rise Set
Actual Time
Civil Twilight
Nautical Twilight
Astronomical Twilight
Moon
Length of Visible Light
Length of Day
Tomorrow will be .
, % of the Moon is Illuminated

Today's Extremes

State Highs State Lows

Community

WunderPhotos

Upload Photos

1,955,525 photos uploaded!

WunderBlog® & News

Nearby

Air Quality

  Air Quality AQ Index Pollutant
Not available.

Snow Depth

Station Depth Elevation

Earthquake Activity

City Distance Mag. Time & Date
Minimum magnitude displayed is 2.5.

Coastal Water Temperatures

Place Temperature

Stations

Nearby Weather Stations

Station Location Temp. Windchill Dew Point Humidity Wind Precip. Elev Updated Type
                   

Watches & Warnings

There are currently no watches in effect.